createdAt,value
2017-06-17T00:00:50.066Z,55.60
2017-06-17T00:03:18.356Z,55.70
2017-06-17T00:05:45.853Z,55.70
2017-06-17T00:08:13.390Z,55.90
2017-06-17T00:10:40.897Z,56.20
2017-06-17T00:13:09.159Z,56.80
2017-06-17T00:15:37.445Z,56.60
2017-06-17T00:18:04.950Z,56.60
2017-06-17T00:20:32.464Z,56.50
2017-06-17T00:23:00.728Z,57.00
2017-06-17T00:25:28.256Z,56.40
2017-06-17T00:27:56.523Z,56.10
2017-06-17T00:30:24.021Z,56.10
2017-06-17T00:32:52.307Z,56.40
2017-06-17T00:35:20.569Z,56.50
2017-06-17T00:37:48.089Z,56.40
2017-06-17T00:40:15.585Z,56.40
2017-06-17T00:42:43.878Z,56.30
2017-06-17T00:45:11.375Z,56.30
2017-06-17T00:47:38.896Z,56.40
2017-06-17T00:50:07.177Z,56.80
2017-06-17T00:52:35.442Z,56.90
2017-06-17T00:55:03.734Z,57.00
2017-06-17T00:57:31.993Z,57.00
2017-06-17T01:00:00.296Z,56.80
2017-06-17T01:02:28.550Z,56.70
2017-06-17T01:04:56.070Z,56.70
2017-06-17T01:07:23.592Z,56.70
2017-06-17T01:09:51.866Z,57.00
2017-06-17T01:12:20.229Z,57.20
2017-06-17T01:14:47.735Z,57.20
2017-06-17T01:17:16.001Z,57.00
2017-06-17T01:19:44.285Z,57.20
2017-06-17T01:22:12.546Z,57.40
2017-06-17T01:24:40.073Z,57.40
2017-06-17T01:27:07.584Z,57.60
2017-06-17T01:29:35.889Z,58.00
2017-06-17T01:32:04.159Z,57.60
2017-06-17T01:34:31.657Z,57.60
2017-06-17T01:36:59.944Z,58.20
2017-06-17T01:39:27.453Z,58.20
2017-06-17T01:41:55.748Z,58.10
2017-06-17T01:44:24.016Z,58.00
2017-06-17T01:46:51.548Z,58.00
2017-06-17T01:49:19.045Z,58.00
2017-06-17T01:51:47.360Z,58.70
2017-06-17T01:54:14.874Z,58.20
2017-06-17T01:56:42.383Z,58.30
2017-06-17T01:59:09.918Z,58.30
2017-06-17T02:01:38.186Z,58.50
2017-06-17T02:04:06.501Z,58.50
2017-06-17T02:06:34.032Z,58.50
2017-06-17T02:09:01.533Z,58.40
2017-06-17T02:11:29.829Z,58.30
2017-06-17T02:13:58.107Z,58.50
2017-06-17T02:16:26.412Z,58.70
2017-06-17T02:18:54.685Z,58.70
2017-06-17T02:21:28.536Z,58.60
2017-06-17T02:23:56.046Z,58.60
2017-06-17T02:26:24.342Z,59.10
2017-06-17T02:28:52.647Z,59.00
2017-06-17T02:31:20.923Z,58.80
2017-06-17T02:33:48.419Z,58.80
2017-06-17T02:36:15.954Z,58.70
2017-06-17T02:38:44.237Z,58.70
2017-06-17T02:41:12.546Z,58.70
2017-06-17T02:43:40.080Z,58.70
2017-06-17T02:46:07.617Z,58.90
2017-06-17T02:48:35.889Z,58.80
2017-06-17T02:51:04.178Z,59.00
2017-06-17T02:53:31.688Z,59.00
2017-06-17T02:55:59.983Z,59.30
2017-06-17T02:58:28.251Z,59.50
2017-06-17T03:00:55.788Z,59.50
2017-06-17T03:03:24.050Z,59.50
2017-06-17T03:05:52.324Z,59.30
2017-06-17T03:08:20.621Z,59.30
2017-06-17T03:10:48.136Z,59.30
2017-06-17T03:13:16.444Z,59.40
2017-06-17T03:15:43.950Z,59.40
2017-06-17T03:18:11.456Z,59.30
2017-06-17T03:20:38.993Z,59.40
2017-06-17T03:23:07.306Z,59.50
2017-06-17T03:25:35.573Z,59.30
2017-06-17T03:28:03.873Z,59.30
2017-06-17T03:30:31.375Z,59.30
2017-06-17T03:32:59.686Z,59.80
2017-06-17T03:35:27.228Z,59.70
2017-06-17T03:37:55.485Z,60.00
2017-06-17T03:40:23.032Z,60.00
2017-06-17T03:42:51.302Z,60.00
2017-06-17T03:45:18.800Z,60.00
2017-06-17T03:47:46.335Z,59.70
2017-06-17T03:50:13.877Z,59.60
2017-06-17T03:52:42.180Z,59.90
2017-06-17T03:55:09.721Z,59.90
2017-06-17T03:57:37.249Z,60.00
2017-06-17T04:00:06.484Z,60.30
2017-06-17T04:02:34.796Z,61.40
2017-06-17T04:05:02.297Z,61.40
2017-06-17T04:07:29.788Z,61.00
2017-06-17T04:09:58.098Z,61.50
2017-06-17T04:12:26.413Z,62.00
2017-06-17T04:14:53.913Z,62.00
2017-06-17T04:17:21.414Z,61.70
2017-06-17T04:19:48.940Z,62.00
2017-06-17T04:22:17.216Z,61.60
2017-06-17T04:24:45.547Z,61.60
2017-06-17T04:27:13.044Z,61.60
2017-06-17T04:29:40.552Z,61.20
2017-06-17T04:32:08.857Z,61.60
2017-06-17T04:34:36.357Z,61.60
2017-06-17T04:37:04.643Z,61.50
2017-06-17T04:39:32.135Z,61.50
2017-06-17T04:42:00.444Z,62.00
2017-06-17T04:44:28.717Z,62.20
2017-06-17T04:46:56.221Z,62.10
2017-06-17T04:49:24.517Z,61.20
2017-06-17T04:51:52.788Z,61.60
2017-06-17T04:54:21.119Z,62.60
2017-06-17T04:56:49.389Z,62.20
2017-06-17T04:59:16.888Z,62.30
2017-06-17T05:01:45.186Z,62.20
2017-06-17T05:04:13.460Z,61.80
2017-06-17T05:06:40.999Z,61.80
2017-06-17T05:09:09.269Z,62.00
2017-06-17T05:11:37.572Z,62.30
2017-06-17T05:14:05.833Z,62.20
2017-06-17T05:16:33.372Z,62.20
2017-06-17T05:19:00.880Z,62.70
2017-06-17T05:21:29.188Z,63.90
2017-06-17T05:23:56.689Z,63.90
2017-06-17T05:26:24.195Z,64.00
2017-06-17T05:28:51.741Z,64.00
2017-06-17T05:31:20.052Z,64.30
2017-06-17T05:33:47.556Z,64.30
2017-06-17T05:36:15.855Z,64.00
2017-06-17T05:38:44.123Z,63.80
2017-06-17T05:41:12.432Z,64.40
2017-06-17T05:43:40.704Z,63.50
2017-06-17T05:46:08.205Z,63.50
2017-06-17T05:48:35.744Z,63.70
2017-06-17T05:51:04.009Z,63.10
2017-06-17T05:53:31.541Z,63.00
2017-06-17T05:55:59.797Z,63.90
2017-06-17T05:58:28.103Z,63.70
2017-06-17T06:00:56.368Z,64.30
2017-06-17T06:03:24.665Z,63.00
2017-06-17T06:05:52.928Z,63.80
2017-06-17T06:08:21.231Z,64.00
2017-06-17T06:10:49.493Z,64.20
2017-06-17T06:13:17.797Z,65.70
2017-06-17T06:15:45.335Z,65.70
2017-06-17T06:18:12.833Z,65.40
2017-06-17T06:20:41.173Z,65.00
2017-06-17T06:23:09.432Z,64.80
2017-06-17T06:25:37.731Z,63.50
2017-06-17T06:28:05.233Z,63.40
2017-06-17T06:30:33.526Z,64.50
2017-06-17T06:33:01.785Z,65.70
2017-06-17T06:35:29.321Z,65.70
2017-06-17T06:37:57.584Z,65.60
2017-06-17T06:40:25.123Z,65.70
2017-06-17T06:42:53.436Z,66.90
2017-06-17T06:45:20.966Z,66.90
2017-06-17T06:47:49.234Z,65.40
2017-06-17T06:50:17.539Z,65.40
2017-06-17T06:52:45.809Z,65.00
2017-06-17T06:55:13.305Z,65.00
2017-06-17T06:57:41.636Z,65.00
2017-06-17T07:00:09.134Z,64.90
2017-06-17T07:02:37.424Z,64.90
2017-06-17T07:05:04.925Z,64.90
2017-06-17T07:07:33.224Z,65.40
2017-06-17T07:10:01.530Z,65.40
2017-06-17T07:12:29.825Z,65.20
2017-06-17T07:14:57.356Z,65.20
2017-06-17T07:17:24.889Z,65.30
2017-06-17T07:19:52.394Z,65.60
2017-06-17T07:22:20.693Z,65.70
2017-06-17T07:24:48.498Z,65.70
2017-06-17T07:27:16.700Z,65.80
2017-06-17T07:29:44.201Z,65.60
2017-06-17T07:32:12.492Z,66.10
2017-06-17T07:34:39.988Z,65.10
2017-06-17T07:37:08.285Z,66.50
2017-06-17T07:39:35.784Z,66.50
2017-06-17T07:42:04.091Z,67.50
2017-06-17T07:44:31.584Z,67.50
2017-06-17T07:46:59.839Z,67.00
2017-06-17T07:49:27.371Z,66.90
2017-06-17T07:51:55.636Z,67.10
2017-06-17T07:54:23.937Z,66.80
2017-06-17T07:56:51.438Z,66.80
2017-06-17T07:59:19.740Z,68.30
2017-06-17T08:01:48.000Z,66.40
2017-06-17T08:04:16.301Z,66.50
2017-06-17T08:06:43.793Z,66.50
2017-06-17T08:09:12.100Z,66.40
2017-06-17T08:11:40.361Z,66.40
2017-06-17T08:14:08.628Z,65.30
2017-06-17T08:16:36.930Z,66.40
2017-06-17T08:19:05.200Z,66.10
2017-06-17T08:21:33.502Z,65.90
2017-06-17T08:24:00.996Z,65.90
2017-06-17T08:26:28.528Z,66.00
2017-06-17T08:28:56.795Z,65.90
2017-06-17T08:31:25.103Z,66.10
2017-06-17T08:33:52.600Z,66.20
2017-06-17T08:36:20.148Z,66.80
2017-06-17T08:38:48.413Z,66.80
2017-06-17T08:41:16.716Z,66.90
2017-06-17T08:43:44.981Z,66.80
2017-06-17T08:46:13.280Z,66.20
2017-06-17T08:48:41.580Z,67.70
2017-06-17T08:51:09.844Z,66.30
2017-06-17T08:53:37.372Z,66.30
2017-06-17T08:56:05.639Z,66.50
2017-06-17T08:58:33.939Z,67.60
2017-06-17T09:01:01.439Z,67.60
2017-06-17T09:03:29.750Z,67.50
2017-06-17T09:05:58.020Z,66.90
2017-06-17T09:08:26.287Z,67.20
2017-06-17T09:10:53.824Z,67.20
2017-06-17T09:13:22.104Z,67.90
2017-06-17T09:15:49.654Z,67.90
2017-06-17T09:18:17.917Z,67.50
2017-06-17T09:20:46.218Z,67.10
2017-06-17T09:23:14.487Z,66.80
2017-06-17T09:25:42.785Z,66.70
2017-06-17T09:28:11.062Z,67.20
2017-06-17T09:30:39.381Z,66.40
2017-06-17T09:33:07.652Z,66.90
2017-06-17T09:35:35.152Z,66.90
2017-06-17T09:38:03.456Z,66.00
2017-06-17T09:40:31.727Z,66.20
2017-06-17T09:43:00.040Z,66.50
2017-06-17T09:45:27.535Z,66.40
2017-06-17T09:47:55.812Z,65.30
2017-06-17T09:50:24.120Z,65.00
2017-06-17T09:52:52.385Z,64.50
2017-06-17T09:55:19.920Z,64.50
2017-06-17T09:57:48.193Z,63.60
2017-06-17T10:00:15.801Z,64.50
2017-06-17T10:02:44.088Z,64.50
2017-06-17T10:05:11.605Z,64.50
2017-06-17T10:07:39.912Z,62.10
2017-06-17T10:10:08.222Z,63.10
2017-06-17T10:12:37.336Z,62.80
2017-06-17T10:15:05.155Z,62.90
2017-06-17T10:17:32.668Z,61.80
2017-06-17T10:20:00.944Z,60.20
2017-06-17T10:22:29.250Z,60.50
2017-06-17T10:24:56.746Z,60.50
2017-06-17T10:27:24.293Z,61.50
2017-06-17T10:29:52.566Z,60.40
2017-06-17T10:32:20.877Z,62.70
2017-06-17T10:34:49.172Z,61.30
2017-06-17T10:37:16.719Z,61.20
2017-06-17T10:39:44.227Z,61.70
2017-06-17T10:42:12.505Z,61.80
2017-06-17T10:44:40.051Z,61.80
2017-06-17T10:47:07.563Z,60.70
2017-06-17T10:49:35.109Z,59.90
2017-06-17T10:52:03.392Z,60.00
2017-06-17T10:54:31.700Z,60.90
2017-06-17T10:56:59.204Z,60.90
2017-06-17T10:59:26.736Z,61.60
2017-06-17T11:01:55.002Z,60.20
2017-06-17T11:04:22.537Z,60.30
2017-06-17T11:06:50.113Z,60.90
2017-06-17T11:09:17.612Z,60.80
2017-06-17T11:11:45.908Z,61.60
2017-06-17T11:14:13.421Z,61.70
2017-06-17T11:16:40.968Z,61.70
2017-06-17T11:19:09.292Z,60.90
2017-06-17T11:21:37.579Z,60.40
2017-06-17T11:24:05.856Z,61.80
2017-06-17T11:26:34.168Z,62.50
2017-06-17T11:29:01.675Z,62.50
2017-06-17T11:31:29.984Z,61.40
2017-06-17T11:33:58.293Z,62.20
2017-06-17T11:36:25.808Z,63.10
2017-06-17T11:38:54.106Z,61.40
2017-06-17T11:41:22.389Z,61.70
2017-06-17T11:43:49.920Z,61.70
2017-06-17T11:46:18.197Z,62.50
2017-06-17T11:48:45.736Z,62.40
2017-06-17T11:51:14.050Z,63.30
2017-06-17T11:53:42.355Z,62.20
2017-06-17T11:56:09.922Z,62.20
2017-06-17T11:58:37.432Z,62.60
2017-06-17T12:01:05.728Z,62.60
2017-06-17T12:03:33.224Z,62.50
2017-06-17T12:06:01.530Z,62.10
2017-06-17T12:08:29.040Z,62.10
2017-06-17T12:10:56.593Z,63.20
2017-06-17T12:13:24.895Z,63.20
2017-06-17T12:15:53.161Z,63.10
2017-06-17T12:18:20.707Z,63.10
2017-06-17T12:20:48.284Z,65.20
2017-06-17T12:23:16.567Z,63.10
2017-06-17T12:25:44.075Z,62.90
2017-06-17T12:28:11.612Z,63.50
2017-06-17T12:30:39.113Z,63.10
2017-06-17T12:33:07.430Z,63.30
2017-06-17T12:35:34.940Z,63.30
2017-06-17T12:38:02.489Z,63.50
2017-06-17T12:40:30.762Z,64.50
2017-06-17T12:42:59.086Z,64.10
2017-06-17T12:45:27.367Z,64.10
2017-06-17T12:47:55.644Z,64.30
2017-06-17T12:50:23.185Z,64.30
2017-06-17T12:52:51.461Z,65.50
2017-06-17T12:55:19.774Z,65.30
2017-06-17T12:57:48.039Z,66.50
2017-06-17T13:00:15.544Z,66.50
2017-06-17T13:02:43.852Z,66.40
2017-06-17T13:05:11.388Z,66.30
2017-06-17T13:07:39.697Z,66.40
2017-06-17T13:10:07.201Z,66.40
2017-06-17T13:12:35.507Z,65.10
2017-06-17T13:15:03.016Z,65.10
2017-06-17T13:17:30.569Z,63.90
2017-06-17T13:19:58.076Z,65.20
2017-06-17T13:22:26.393Z,63.20
2017-06-17T13:24:54.666Z,62.90
2017-06-17T13:27:22.175Z,62.90
2017-06-17T13:29:49.743Z,62.50
2017-06-17T13:32:18.048Z,62.20
2017-06-17T13:34:46.377Z,60.50
2017-06-17T13:37:14.658Z,61.50
2017-06-17T13:39:42.170Z,61.50
2017-06-17T13:42:10.499Z,61.00
2017-06-17T13:44:38.782Z,61.70
2017-06-17T13:47:06.323Z,61.60
2017-06-17T13:49:33.866Z,61.60
2017-06-17T13:52:02.144Z,60.20
2017-06-17T13:54:30.452Z,61.30
2017-06-17T13:56:58.730Z,60.20
2017-06-17T13:59:26.272Z,60.20
2017-06-17T14:01:54.550Z,61.00
2017-06-17T14:04:22.113Z,61.00
2017-06-17T14:06:50.388Z,60.60
2017-06-17T14:09:18.649Z,61.40
2017-06-17T14:11:46.955Z,61.30
2017-06-17T14:14:15.217Z,60.30
2017-06-17T14:16:43.533Z,60.40
2017-06-17T14:19:11.792Z,61.20
2017-06-17T14:21:45.818Z,60.60
2017-06-17T14:24:14.096Z,61.10
2017-06-17T14:26:42.375Z,61.60
2017-06-17T14:29:10.673Z,61.90
2017-06-17T14:31:38.981Z,61.40
2017-06-17T14:34:07.243Z,60.60
2017-06-17T14:36:34.809Z,60.60
2017-06-17T14:39:02.317Z,61.40
2017-06-17T14:41:30.628Z,60.50
2017-06-17T14:43:58.134Z,60.40
2017-06-17T14:46:25.681Z,60.50
2017-06-17T14:48:53.189Z,60.60
2017-06-17T14:51:21.455Z,61.50
2017-06-17T14:53:49.005Z,62.40
2017-06-17T14:56:16.515Z,61.00
2017-06-17T14:58:44.820Z,61.40
2017-06-17T15:01:13.088Z,61.80
2017-06-17T15:03:41.389Z,61.80
2017-06-17T15:06:08.888Z,61.70
2017-06-17T15:08:37.191Z,60.90
2017-06-17T15:11:05.506Z,60.80
2017-06-17T15:13:33.810Z,61.10
2017-06-17T15:16:02.176Z,60.20
2017-06-17T15:18:29.682Z,60.20
2017-06-17T15:20:57.953Z,60.60
2017-06-17T15:23:26.254Z,61.30
2017-06-17T15:25:54.525Z,61.00
2017-06-17T15:28:22.066Z,61.00
2017-06-17T15:30:50.372Z,60.50
2017-06-17T15:33:18.638Z,61.40
2017-06-17T15:35:46.183Z,61.40
2017-06-17T15:38:14.487Z,61.90
2017-06-17T15:40:41.997Z,61.90
2017-06-17T15:43:10.304Z,61.30
2017-06-17T15:45:38.576Z,61.70
2017-06-17T15:48:06.121Z,61.70
2017-06-17T15:50:34.386Z,62.80
2017-06-17T15:53:02.694Z,61.70
2017-06-17T15:55:30.981Z,62.20
2017-06-17T15:57:59.297Z,61.80
2017-06-17T16:00:26.805Z,61.80
2017-06-17T16:02:55.083Z,62.30
2017-06-17T16:05:22.631Z,62.30
2017-06-17T16:07:50.157Z,62.20
2017-06-17T16:10:18.433Z,60.90
2017-06-17T16:12:46.746Z,61.00
2017-06-17T16:15:15.016Z,61.60
2017-06-17T16:17:42.552Z,61.60
2017-06-17T16:20:10.819Z,60.50
2017-06-17T16:22:39.127Z,61.60
2017-06-17T16:25:06.629Z,61.50
2017-06-17T16:27:34.179Z,61.20
2017-06-17T16:30:02.459Z,62.10
2017-06-17T16:32:30.729Z,62.20
2017-06-17T16:34:59.037Z,61.20
2017-06-17T16:37:27.304Z,61.50
2017-06-17T16:39:54.843Z,61.40
2017-06-17T16:42:23.117Z,60.80
2017-06-17T16:44:50.651Z,60.80
2017-06-17T16:47:18.921Z,60.60
2017-06-17T16:49:47.216Z,60.70
2017-06-17T16:52:15.524Z,60.90
2017-06-17T16:54:43.831Z,60.90
2017-06-17T16:57:11.331Z,60.90
2017-06-17T16:59:38.868Z,61.30
2017-06-17T17:02:07.440Z,61.10
2017-06-17T17:04:35.031Z,61.10
2017-06-17T17:07:03.346Z,61.80
2017-06-17T17:09:30.856Z,61.80
2017-06-17T17:11:59.161Z,62.50
2017-06-17T17:14:27.504Z,63.10
2017-06-17T17:16:55.012Z,63.10
2017-06-17T17:19:22.528Z,61.70
2017-06-17T17:21:50.831Z,61.60
2017-06-17T17:24:18.333Z,62.40
2017-06-17T17:26:46.639Z,62.00
2017-06-17T17:29:14.939Z,62.20
2017-06-17T17:31:43.205Z,62.40
2017-06-17T17:34:11.505Z,62.10
2017-06-17T17:36:39.000Z,62.10
2017-06-17T17:39:07.294Z,62.80
2017-06-17T17:41:35.573Z,62.20
2017-06-17T17:44:03.918Z,62.50
2017-06-17T17:46:32.190Z,62.70
2017-06-17T17:48:59.697Z,62.70
2017-06-17T17:51:28.000Z,63.20
2017-06-17T17:53:55.505Z,63.20
2017-06-17T17:56:23.038Z,63.20
2017-06-17T17:58:51.301Z,63.00
2017-06-17T18:01:19.602Z,63.20
2017-06-17T18:03:47.091Z,63.20
2017-06-17T18:06:14.641Z,63.70
2017-06-17T18:08:42.913Z,64.30
2017-06-17T18:11:11.184Z,65.10
2017-06-17T18:13:38.721Z,65.10
2017-06-17T18:16:06.216Z,64.70
2017-06-17T18:18:33.745Z,66.60
2017-06-17T18:21:02.424Z,65.60
2017-06-17T18:23:30.737Z,64.40
2017-06-17T18:25:58.242Z,64.40
2017-06-17T18:28:26.506Z,65.00
2017-06-17T18:30:54.050Z,65.70
2017-06-17T18:33:22.316Z,66.20
2017-06-17T18:35:49.869Z,66.20
2017-06-17T18:38:18.140Z,66.30
2017-06-17T18:40:45.674Z,66.30
2017-06-17T18:43:13.944Z,65.80
2017-06-17T18:45:41.487Z,65.80
2017-06-17T18:48:09.753Z,66.20
2017-06-17T18:50:37.336Z,66.30
2017-06-17T18:53:05.600Z,65.90
2017-06-17T18:55:33.877Z,66.20
2017-06-17T18:58:01.411Z,66.20
2017-06-17T19:00:29.681Z,66.70
2017-06-17T19:02:57.987Z,67.00
2017-06-17T19:05:25.485Z,67.00
2017-06-17T19:07:53.021Z,67.20
2017-06-17T19:10:20.552Z,67.50
2017-06-17T19:12:48.873Z,67.60
2017-06-17T19:15:16.398Z,67.60
2017-06-17T19:17:43.900Z,67.40
2017-06-17T19:20:11.449Z,67.30
2017-06-17T19:22:39.717Z,67.30
2017-06-17T19:25:07.260Z,67.30
2017-06-17T19:27:35.530Z,68.20
2017-06-17T19:30:03.099Z,68.20
2017-06-17T19:32:31.408Z,68.50
2017-06-17T19:34:58.924Z,68.50
2017-06-17T19:37:26.496Z,68.50
2017-06-17T19:39:54.771Z,68.30
2017-06-17T19:42:23.072Z,68.10
2017-06-17T19:44:51.378Z,68.20
2017-06-17T19:47:19.676Z,68.30
2017-06-17T19:49:47.205Z,68.20
2017-06-17T19:52:15.521Z,69.10
2017-06-17T19:54:43.024Z,69.00
2017-06-17T19:57:11.288Z,69.00
2017-06-17T19:59:38.842Z,68.90
2017-06-17T20:02:07.114Z,69.30
2017-06-17T20:04:35.422Z,69.90
2017-06-17T20:07:03.693Z,69.10
2017-06-17T20:09:32.001Z,69.90
2017-06-17T20:12:00.275Z,69.50
2017-06-17T20:14:28.587Z,69.50
2017-06-17T20:16:56.092Z,69.50
2017-06-17T20:19:24.417Z,70.40
2017-06-17T20:22:10.528Z,70.10
2017-06-17T20:24:38.078Z,70.10
2017-06-17T20:27:06.385Z,70.50
2017-06-17T20:29:33.912Z,70.50
2017-06-17T20:32:02.216Z,71.20
2017-06-17T20:34:30.481Z,71.70
2017-06-17T20:36:57.989Z,71.70
2017-06-17T20:39:25.533Z,71.80
2017-06-17T20:41:53.840Z,72.30
2017-06-17T20:44:21.372Z,72.40
2017-06-17T20:46:48.904Z,73.30
2017-06-17T20:49:16.443Z,72.40
2017-06-17T20:51:44.711Z,73.20
2017-06-17T20:54:12.212Z,73.20
2017-06-17T20:56:40.511Z,74.30
2017-06-17T20:59:08.823Z,73.70
2017-06-17T21:01:37.122Z,73.90
2017-06-17T21:04:04.665Z,73.70
2017-06-17T21:06:32.192Z,73.60
2017-06-17T21:08:59.721Z,74.00
2017-06-17T21:11:27.990Z,73.90
2017-06-17T21:13:55.536Z,73.90
2017-06-17T21:16:23.061Z,74.50
2017-06-17T21:18:50.603Z,74.70
2017-06-17T21:21:18.911Z,75.10
2017-06-17T21:23:46.421Z,75.10
2017-06-17T21:26:13.960Z,75.20
2017-06-17T21:28:41.468Z,75.40
2017-06-17T21:31:09.790Z,75.30
2017-06-17T21:33:38.054Z,75.40
2017-06-17T21:36:05.556Z,75.40
2017-06-17T21:38:33.868Z,75.10
2017-06-17T21:41:02.149Z,75.50
2017-06-17T21:43:30.444Z,74.70
2017-06-17T21:45:57.943Z,74.70
2017-06-17T21:48:25.476Z,75.00
2017-06-17T21:50:53.017Z,75.00
2017-06-17T21:53:21.319Z,75.60
2017-06-17T21:55:49.576Z,75.20
2017-06-17T21:58:17.903Z,75.10
2017-06-17T22:00:45.409Z,75.10
2017-06-17T22:03:13.686Z,76.20
2017-06-17T22:05:41.992Z,75.40
2017-06-17T22:08:09.480Z,75.40
2017-06-17T22:10:36.973Z,75.20
2017-06-17T22:13:05.269Z,75.60
2017-06-17T22:15:33.570Z,76.00
2017-06-17T22:18:01.066Z,76.00
2017-06-17T22:20:29.365Z,76.40
2017-06-17T22:22:57.627Z,77.10
2017-06-17T22:25:25.161Z,77.10
2017-06-17T22:27:52.655Z,76.60
2017-06-17T22:30:20.197Z,75.80
2017-06-17T22:32:48.492Z,77.50
2017-06-17T22:35:16.764Z,77.80
2017-06-17T22:37:44.296Z,77.80
2017-06-17T22:40:12.552Z,77.30
2017-06-17T22:42:40.861Z,77.50
2017-06-17T22:45:08.360Z,77.50
2017-06-17T22:47:36.648Z,76.40
2017-06-17T22:50:04.920Z,77.30
2017-06-17T22:52:33.229Z,77.60
2017-06-17T22:55:00.736Z,77.60
2017-06-17T22:57:28.993Z,77.90
2017-06-17T22:59:57.298Z,77.90
2017-06-17T23:02:25.573Z,78.50
2017-06-17T23:04:53.104Z,78.70
2017-06-17T23:07:20.633Z,78.70
2017-06-17T23:09:48.173Z,78.70
2017-06-17T23:12:16.444Z,78.40
2017-06-17T23:14:43.980Z,78.30
2017-06-17T23:17:11.512Z,78.60
2017-06-17T23:19:39.783Z,80.00
2017-06-17T23:22:08.088Z,79.90
2017-06-17T23:24:36.356Z,79.30
2017-06-17T23:27:04.657Z,79.20
2017-06-17T23:29:32.170Z,79.10
2017-06-17T23:32:00.483Z,79.50
2017-06-17T23:34:27.990Z,79.50
2017-06-17T23:36:56.257Z,80.10
2017-06-17T23:39:23.797Z,80.10
2017-06-17T23:41:52.070Z,79.60
2017-06-17T23:44:20.367Z,80.90
2017-06-17T23:46:47.879Z,80.90
2017-06-17T23:49:15.417Z,81.00
2017-06-17T23:51:43.712Z,80.70
2017-06-17T23:54:12.009Z,80.60
2017-06-17T23:56:40.267Z,80.60
2017-06-17T23:59:08.564Z,80.20
